Terminal Aerodrome Forecast
Issued by NWS

Home | Current Version | Previous Version | Graphics & Text | Print | Product List | Glossary On
Versions: 1 2 3 4 5 6 7 8 9 10 11 12 13 14 15 16 17 18 19 20 21 22 23 24
000
FTUS43 KGRB 231300 AAA
TAFATW
TAF AMD
KATW 231332Z 2314/2412 19011KT 1 1/2SM -DZ BR OVC004
      TEMPO 2314/2315 1/4SM FG OVC002
     FM232100 15008KT 1SM -RA BR OVC003
     FM240100 11006KT 3/4SM -RA BR OVC002
     FM240900 32006KT 2SM -RA BR OVC003=

USA.gov is the U.S. government's official web portal to all federal, state and local government web resources and services.